sensor_id;sensor_type;location;lat;lon;timestamp;P1;durP1;ratioP1;P2;durP2;ratioP2
19043;SDS011;9654;52.302;8.120;2022-08-03T00:02:01;3.73;;;3.53;;
19043;SDS011;9654;52.302;8.120;2022-08-03T00:04:28;4.20;;;2.93;;
19043;SDS011;9654;52.302;8.120;2022-08-03T00:06:55;5.90;;;4.30;;
19043;SDS011;9654;52.302;8.120;2022-08-03T00:09:21;5.37;;;3.73;;
19043;SDS011;9654;52.302;8.120;2022-08-03T00:11:48;4.47;;;4.00;;
19043;SDS011;9654;52.302;8.120;2022-08-03T00:14:15;5.63;;;4.10;;
19043;SDS011;9654;52.302;8.120;2022-08-03T00:16:42;4.53;;;3.77;;
19043;SDS011;9654;52.302;8.120;2022-08-03T00:19:10;4.53;;;4.13;;
19043;SDS011;9654;52.302;8.120;2022-08-03T00:21:36;4.63;;;4.23;;
19043;SDS011;9654;52.302;8.120;2022-08-03T00:24:04;4.73;;;3.90;;
19043;SDS011;9654;52.302;8.120;2022-08-03T00:26:31;5.97;;;3.90;;
19043;SDS011;9654;52.302;8.120;2022-08-03T00:28:57;4.20;;;3.50;;
19043;SDS011;9654;52.302;8.120;2022-08-03T00:31:24;4.93;;;3.80;;
19043;SDS011;9654;52.302;8.120;2022-08-03T00:33:51;3.90;;;3.60;;
19043;SDS011;9654;52.302;8.120;2022-08-03T00:36:19;7.67;;;4.37;;
19043;SDS011;9654;52.302;8.120;2022-08-03T00:38:46;4.13;;;3.73;;
19043;SDS011;9654;52.302;8.120;2022-08-03T00:41:12;5.40;;;4.53;;
19043;SDS011;9654;52.302;8.120;2022-08-03T00:43:39;4.33;;;3.90;;
19043;SDS011;9654;52.302;8.120;2022-08-03T00:46:06;4.93;;;4.43;;
19043;SDS011;9654;52.302;8.120;2022-08-03T00:48:33;4.20;;;3.63;;
19043;SDS011;9654;52.302;8.120;2022-08-03T00:50:59;4.53;;;3.77;;
19043;SDS011;9654;52.302;8.120;2022-08-03T00:53:28;5.00;;;4.50;;
19043;SDS011;9654;52.302;8.120;2022-08-03T00:55:55;6.23;;;4.40;;
19043;SDS011;9654;52.302;8.120;2022-08-03T00:58:23;4.50;;;3.90;;
19043;SDS011;9654;52.302;8.120;2022-08-03T01:00:49;3.97;;;3.50;;
19043;SDS011;9654;52.302;8.120;2022-08-03T01:03:16;4.63;;;4.23;;
19043;SDS011;9654;52.302;8.120;2022-08-03T01:05:44;4.47;;;4.07;;
19043;SDS011;9654;52.302;8.120;2022-08-03T01:08:17;5.10;;;4.63;;
19043;SDS011;9654;52.302;8.120;2022-08-03T01:10:52;4.80;;;4.30;;
19043;SDS011;9654;52.302;8.120;2022-08-03T01:13:26;5.20;;;4.50;;
19043;SDS011;9654;52.302;8.120;2022-08-03T01:15:58;4.53;;;4.13;;
19043;SDS011;9654;52.302;8.120;2022-08-03T01:18:31;4.53;;;4.13;;
19043;SDS011;9654;52.302;8.120;2022-08-03T01:21:06;4.40;;;4.00;;
19043;SDS011;9654;52.302;8.120;2022-08-03T01:23:43;4.63;;;4.20;;
19043;SDS011;9654;52.302;8.120;2022-08-03T01:26:37;5.00;;;4.50;;
19043;SDS011;9654;52.302;8.120;2022-08-03T01:32:24;5.77;;;4.17;;
19043;SDS011;9654;52.302;8.120;2022-08-03T01:34:58;5.10;;;4.60;;
19043;SDS011;9654;52.302;8.120;2022-08-03T01:37:30;4.90;;;4.37;;
19043;SDS011;9654;52.302;8.120;2022-08-03T01:40:02;5.27;;;4.77;;
19043;SDS011;9654;52.302;8.120;2022-08-03T01:42:31;6.53;;;4.60;;
19043;SDS011;9654;52.302;8.120;2022-08-03T01:44:58;5.57;;;4.80;;
19043;SDS011;9654;52.302;8.120;2022-08-03T01:47:28;9.40;;;4.70;;
19043;SDS011;9654;52.302;8.120;2022-08-03T01:49:55;4.60;;;4.20;;
19043;SDS011;9654;52.302;8.120;2022-08-03T01:52:23;4.30;;;3.90;;
19043;SDS011;9654;52.302;8.120;2022-08-03T01:54:51;6.73;;;4.50;;
19043;SDS011;9654;52.302;8.120;2022-08-03T01:57:20;7.00;;;4.60;;
19043;SDS011;9654;52.302;8.120;2022-08-03T01:59:49;4.70;;;4.20;;
19043;SDS011;9654;52.302;8.120;2022-08-03T02:02:19;5.03;;;4.10;;
19043;SDS011;9654;52.302;8.120;2022-08-03T02:04:48;4.67;;;4.27;;
19043;SDS011;9654;52.302;8.120;2022-08-03T02:07:17;5.10;;;4.57;;
19043;SDS011;9654;52.302;8.120;2022-08-03T02:09:46;4.30;;;3.90;;
19043;SDS011;9654;52.302;8.120;2022-08-03T02:12:16;6.07;;;4.20;;
19043;SDS011;9654;52.302;8.120;2022-08-03T02:14:44;4.03;;;3.73;;
19043;SDS011;9654;52.302;8.120;2022-08-03T02:17:11;5.97;;;4.40;;
19043;SDS011;9654;52.302;8.120;2022-08-03T02:19:39;4.63;;;4.23;;
19043;SDS011;9654;52.302;8.120;2022-08-03T02:22:10;4.57;;;4.10;;
19043;SDS011;9654;52.302;8.120;2022-08-03T02:24:37;4.23;;;3.93;;
19043;SDS011;9654;52.302;8.120;2022-08-03T02:27:13;5.90;;;4.60;;
19043;SDS011;9654;52.302;8.120;2022-08-03T02:29:45;5.00;;;4.33;;
19043;SDS011;9654;52.302;8.120;2022-08-03T02:32:16;5.40;;;4.53;;
19043;SDS011;9654;52.302;8.120;2022-08-03T02:34:49;6.03;;;4.77;;
19043;SDS011;9654;52.302;8.120;2022-08-03T02:37:19;4.97;;;4.47;;
19043;SDS011;9654;52.302;8.120;2022-08-03T02:39:50;5.00;;;4.50;;
19043;SDS011;9654;52.302;8.120;2022-08-03T02:42:20;6.30;;;4.43;;
19043;SDS011;9654;52.302;8.120;2022-08-03T02:44:50;4.83;;;4.43;;
19043;SDS011;9654;52.302;8.120;2022-08-03T02:47:20;5.57;;;4.77;;
19043;SDS011;9654;52.302;8.120;2022-08-03T02:49:48;5.13;;;4.63;;
19043;SDS011;9654;52.302;8.120;2022-08-03T02:52:19;5.13;;;4.70;;
19043;SDS011;9654;52.302;8.120;2022-08-03T02:54:48;6.07;;;5.47;;
19043;SDS011;9654;52.302;8.120;2022-08-03T02:57:18;8.80;;;6.23;;
19043;SDS011;9654;52.302;8.120;2022-08-03T02:59:46;5.90;;;5.33;;
19043;SDS011;9654;52.302;8.120;2022-08-03T03:02:13;7.30;;;5.03;;
19043;SDS011;9654;52.302;8.120;2022-08-03T03:04:41;5.50;;;4.90;;
19043;SDS011;9654;52.302;8.120;2022-08-03T03:07:09;5.90;;;4.80;;
19043;SDS011;9654;52.302;8.120;2022-08-03T03:09:39;6.27;;;4.77;;
19043;SDS011;9654;52.302;8.120;2022-08-03T03:12:06;6.83;;;4.87;;
19043;SDS011;9654;52.302;8.120;2022-08-03T03:14:35;5.87;;;4.77;;
19043;SDS011;9654;52.302;8.120;2022-08-03T03:17:02;4.70;;;4.17;;
19043;SDS011;9654;52.302;8.120;2022-08-03T03:19:31;5.00;;;4.60;;
19043;SDS011;9654;52.302;8.120;2022-08-03T03:21:58;5.63;;;5.03;;
19043;SDS011;9654;52.302;8.120;2022-08-03T03:24:26;5.30;;;4.80;;
19043;SDS011;9654;52.302;8.120;2022-08-03T03:26:55;5.07;;;4.00;;
19043;SDS011;9654;52.302;8.120;2022-08-03T03:29:23;5.93;;;4.87;;
19043;SDS011;9654;52.302;8.120;2022-08-03T03:31:50;7.73;;;5.57;;
19043;SDS011;9654;52.302;8.120;2022-08-03T03:34:17;6.73;;;5.60;;
19043;SDS011;9654;52.302;8.120;2022-08-03T03:36:44;8.67;;;5.77;;
19043;SDS011;9654;52.302;8.120;2022-08-03T03:39:11;7.27;;;6.00;;
19043;SDS011;9654;52.302;8.120;2022-08-03T03:41:38;7.87;;;5.77;;
19043;SDS011;9654;52.302;8.120;2022-08-03T03:44:06;6.77;;;5.70;;
19043;SDS011;9654;52.302;8.120;2022-08-03T03:46:33;6.47;;;5.37;;
19043;SDS011;9654;52.302;8.120;2022-08-03T03:49:00;5.83;;;5.30;;
19043;SDS011;9654;52.302;8.120;2022-08-03T03:51:27;5.93;;;4.83;;
19043;SDS011;9654;52.302;8.120;2022-08-03T03:53:55;9.70;;;5.83;;
19043;SDS011;9654;52.302;8.120;2022-08-03T03:56:22;8.43;;;6.23;;
19043;SDS011;9654;52.302;8.120;2022-08-03T03:58:49;5.73;;;5.23;;
19043;SDS011;9654;52.302;8.120;2022-08-03T04:01:17;6.27;;;5.37;;
19043;SDS011;9654;52.302;8.120;2022-08-03T04:03:45;6.07;;;5.53;;
19043;SDS011;9654;52.302;8.120;2022-08-03T04:06:11;5.50;;;5.00;;
19043;SDS011;9654;52.302;8.120;2022-08-03T04:08:56;7.20;;;5.83;;
19043;SDS011;9654;52.302;8.120;2022-08-03T04:11:42;8.07;;;6.50;;
19043;SDS011;9654;52.302;8.120;2022-08-03T04:14:15;6.93;;;6.23;;
19043;SDS011;9654;52.302;8.120;2022-08-03T04:16:47;5.97;;;5.37;;
19043;SDS011;9654;52.302;8.120;2022-08-03T04:19:17;7.00;;;5.23;;
19043;SDS011;9654;52.302;8.120;2022-08-03T04:21:50;5.77;;;5.07;;
19043;SDS011;9654;52.302;8.120;2022-08-03T04:24:21;6.53;;;5.57;;
19043;SDS011;9654;52.302;8.120;2022-08-03T04:26:49;7.07;;;6.10;;
19043;SDS011;9654;52.302;8.120;2022-08-03T04:29:16;5.70;;;5.20;;
19043;SDS011;9654;52.302;8.120;2022-08-03T04:31:47;6.63;;;5.70;;
19043;SDS011;9654;52.302;8.120;2022-08-03T04:34:15;5.60;;;5.10;;
19043;SDS011;9654;52.302;8.120;2022-08-03T04:36:43;7.60;;;6.57;;
19043;SDS011;9654;52.302;8.120;2022-08-03T04:39:15;9.37;;;6.73;;
19043;SDS011;9654;52.302;8.120;2022-08-03T04:41:48;6.37;;;5.73;;
19043;SDS011;9654;52.302;8.120;2022-08-03T04:44:18;7.47;;;6.43;;
19043;SDS011;9654;52.302;8.120;2022-08-03T04:46:50;7.50;;;6.57;;
19043;SDS011;9654;52.302;8.120;2022-08-03T04:49:18;6.90;;;6.20;;
19043;SDS011;9654;52.302;8.120;2022-08-03T04:51:46;7.50;;;5.73;;
19043;SDS011;9654;52.302;8.120;2022-08-03T04:54:14;6.90;;;6.20;;
19043;SDS011;9654;52.302;8.120;2022-08-03T04:56:41;13.77;;;6.70;;
19043;SDS011;9654;52.302;8.120;2022-08-03T04:59:08;7.33;;;5.90;;
19043;SDS011;9654;52.302;8.120;2022-08-03T05:01:36;6.67;;;5.60;;
19043;SDS011;9654;52.302;8.120;2022-08-03T05:04:04;7.17;;;5.87;;
19043;SDS011;9654;52.302;8.120;2022-08-03T05:06:30;6.40;;;5.63;;
19043;SDS011;9654;52.302;8.120;2022-08-03T05:08:57;6.93;;;5.97;;
19043;SDS011;9654;52.302;8.120;2022-08-03T05:11:24;9.73;;;6.00;;
19043;SDS011;9654;52.302;8.120;2022-08-03T05:13:51;9.97;;;5.87;;
19043;SDS011;9654;52.302;8.120;2022-08-03T05:16:18;5.87;;;5.33;;
19043;SDS011;9654;52.302;8.120;2022-08-03T05:18:44;10.50;;;5.77;;
19043;SDS011;9654;52.302;8.120;2022-08-03T05:21:13;7.33;;;5.63;;
19043;SDS011;9654;52.302;8.120;2022-08-03T05:23:40;10.37;;;5.67;;
19043;SDS011;9654;52.302;8.120;2022-08-03T05:26:07;8.60;;;5.87;;
19043;SDS011;9654;52.302;8.120;2022-08-03T05:28:35;8.80;;;5.50;;
19043;SDS011;9654;52.302;8.120;2022-08-03T05:31:02;10.53;;;5.70;;
19043;SDS011;9654;52.302;8.120;2022-08-03T05:33:29;7.33;;;5.17;;
19043;SDS011;9654;52.302;8.120;2022-08-03T05:35:56;8.47;;;5.23;;
19043;SDS011;9654;52.302;8.120;2022-08-03T05:38:25;6.80;;;5.03;;
19043;SDS011;9654;52.302;8.120;2022-08-03T05:40:51;6.03;;;4.47;;
19043;SDS011;9654;52.302;8.120;2022-08-03T05:43:18;5.67;;;4.50;;
19043;SDS011;9654;52.302;8.120;2022-08-03T05:45:45;6.00;;;4.90;;
19043;SDS011;9654;52.302;8.120;2022-08-03T05:48:12;5.90;;;4.53;;
19043;SDS011;9654;52.302;8.120;2022-08-03T05:50:39;6.90;;;4.63;;
19043;SDS011;9654;52.302;8.120;2022-08-03T05:53:06;9.73;;;4.80;;
19043;SDS011;9654;52.302;8.120;2022-08-03T05:55:34;7.63;;;4.50;;
19043;SDS011;9654;52.302;8.120;2022-08-03T05:58:01;6.50;;;4.70;;
19043;SDS011;9654;52.302;8.120;2022-08-03T06:00:28;5.47;;;4.17;;
19043;SDS011;9654;52.302;8.120;2022-08-03T06:02:55;5.87;;;4.10;;
19043;SDS011;9654;52.302;8.120;2022-08-03T06:05:21;6.17;;;4.47;;
19043;SDS011;9654;52.302;8.120;2022-08-03T06:07:51;8.07;;;4.63;;
19043;SDS011;9654;52.302;8.120;2022-08-03T06:10:18;5.63;;;4.20;;
19043;SDS011;9654;52.302;8.120;2022-08-03T06:12:46;6.70;;;4.17;;
19043;SDS011;9654;52.302;8.120;2022-08-03T06:15:16;7.13;;;4.13;;
19043;SDS011;9654;52.302;8.120;2022-08-03T06:17:44;8.47;;;4.40;;
19043;SDS011;9654;52.302;8.120;2022-08-03T06:20:12;4.17;;;3.70;;
19043;SDS011;9654;52.302;8.120;2022-08-03T06:22:38;5.33;;;3.53;;
19043;SDS011;9654;52.302;8.120;2022-08-03T06:25:05;3.90;;;3.50;;
19043;SDS011;9654;52.302;8.120;2022-08-03T06:27:33;5.37;;;3.80;;
19043;SDS011;9654;52.302;8.120;2022-08-03T06:30:02;7.73;;;4.50;;
19043;SDS011;9654;52.302;8.120;2022-08-03T06:32:29;6.70;;;3.57;;
19043;SDS011;9654;52.302;8.120;2022-08-03T06:34:55;7.33;;;3.83;;
19043;SDS011;9654;52.302;8.120;2022-08-03T06:37:22;5.17;;;3.30;;
19043;SDS011;9654;52.302;8.120;2022-08-03T06:39:51;7.50;;;3.30;;
19043;SDS011;9654;52.302;8.120;2022-08-03T06:42:18;5.23;;;3.30;;
19043;SDS011;9654;52.302;8.120;2022-08-03T06:44:45;6.43;;;3.40;;
19043;SDS011;9654;52.302;8.120;2022-08-03T06:47:13;5.47;;;3.33;;
19043;SDS011;9654;52.302;8.120;2022-08-03T06:49:39;7.77;;;3.40;;
19043;SDS011;9654;52.302;8.120;2022-08-03T06:52:06;6.32;;;2.85;;
19043;SDS011;9654;52.302;8.120;2022-08-03T06:54:33;6.37;;;3.03;;
19043;SDS011;9654;52.302;8.120;2022-08-03T06:57:01;5.90;;;2.93;;
19043;SDS011;9654;52.302;8.120;2022-08-03T06:59:27;5.43;;;2.90;;
19043;SDS011;9654;52.302;8.120;2022-08-03T07:01:54;5.93;;;3.20;;
19043;SDS011;9654;52.302;8.120;2022-08-03T07:04:22;9.70;;;3.47;;
19043;SDS011;9654;52.302;8.120;2022-08-03T07:06:49;7.70;;;4.23;;
19043;SDS011;9654;52.302;8.120;2022-08-03T07:09:16;7.78;;;4.32;;
19043;SDS011;9654;52.302;8.120;2022-08-03T07:11:43;8.43;;;3.17;;
19043;SDS011;9654;52.302;8.120;2022-08-03T07:14:09;4.95;;;3.55;;
19043;SDS011;9654;52.302;8.120;2022-08-03T07:16:36;8.40;;;3.28;;
19043;SDS011;9654;52.302;8.120;2022-08-03T07:19:03;6.53;;;2.85;;
19043;SDS011;9654;52.302;8.120;2022-08-03T07:21:31;5.60;;;2.53;;
19043;SDS011;9654;52.302;8.120;2022-08-03T07:23:58;6.68;;;2.67;;
19043;SDS011;9654;52.302;8.120;2022-08-03T07:26:24;3.83;;;2.58;;
19043;SDS011;9654;52.302;8.120;2022-08-03T07:28:51;6.97;;;2.67;;
19043;SDS011;9654;52.302;8.120;2022-08-03T07:31:18;8.25;;;3.17;;
19043;SDS011;9654;52.302;8.120;2022-08-03T07:33:45;6.57;;;3.08;;
19043;SDS011;9654;52.302;8.120;2022-08-03T07:36:11;7.43;;;2.95;;
19043;SDS011;9654;52.302;8.120;2022-08-03T07:38:39;8.05;;;2.95;;
19043;SDS011;9654;52.302;8.120;2022-08-03T07:41:06;4.50;;;3.17;;
19043;SDS011;9654;52.302;8.120;2022-08-03T07:43:33;7.57;;;3.53;;
19043;SDS011;9654;52.302;8.120;2022-08-03T07:46:00;8.38;;;3.55;;
19043;SDS011;9654;52.302;8.120;2022-08-03T07:48:26;5.00;;;2.90;;
19043;SDS011;9654;52.302;8.120;2022-08-03T07:50:53;6.75;;;2.80;;
19043;SDS011;9654;52.302;8.120;2022-08-03T07:53:20;3.78;;;2.85;;
19043;SDS011;9654;52.302;8.120;2022-08-03T07:55:48;3.95;;;2.47;;
19043;SDS011;9654;52.302;8.120;2022-08-03T07:58:15;6.25;;;2.60;;
19043;SDS011;9654;52.302;8.120;2022-08-03T08:00:42;4.38;;;2.63;;
19043;SDS011;9654;52.302;8.120;2022-08-03T08:03:10;4.15;;;2.38;;
19043;SDS011;9654;52.302;8.120;2022-08-03T08:05:37;8.05;;;2.85;;
19043;SDS011;9654;52.302;8.120;2022-08-03T08:08:04;4.93;;;2.70;;
19043;SDS011;9654;52.302;8.120;2022-08-03T08:10:31;8.43;;;2.80;;
19043;SDS011;9654;52.302;8.120;2022-08-03T08:13:00;4.38;;;2.30;;
19043;SDS011;9654;52.302;8.120;2022-08-03T08:15:27;7.72;;;2.47;;
19043;SDS011;9654;52.302;8.120;2022-08-03T08:17:56;9.38;;;2.90;;
19043;SDS011;9654;52.302;8.120;2022-08-03T08:20:26;4.15;;;2.60;;
19043;SDS011;9654;52.302;8.120;2022-08-03T08:22:54;6.78;;;2.30;;
19043;SDS011;9654;52.302;8.120;2022-08-03T08:25:22;3.55;;;1.95;;
19043;SDS011;9654;52.302;8.120;2022-08-03T08:27:49;7.22;;;2.20;;
19043;SDS011;9654;52.302;8.120;2022-08-03T08:30:17;2.63;;;2.22;;
19043;SDS011;9654;52.302;8.120;2022-08-03T08:32:47;6.30;;;2.03;;
19043;SDS011;9654;52.302;8.120;2022-08-03T08:35:15;4.18;;;2.35;;
19043;SDS011;9654;52.302;8.120;2022-08-03T08:37:42;6.43;;;2.22;;
19043;SDS011;9654;52.302;8.120;2022-08-03T08:40:09;4.25;;;2.15;;
19043;SDS011;9654;52.302;8.120;2022-08-03T08:42:37;6.63;;;2.85;;
19043;SDS011;9654;52.302;8.120;2022-08-03T08:45:05;4.55;;;2.53;;
19043;SDS011;9654;52.302;8.120;2022-08-03T08:47:35;5.97;;;1.92;;
19043;SDS011;9654;52.302;8.120;2022-08-03T08:50:04;3.40;;;1.90;;
19043;SDS011;9654;52.302;8.120;2022-08-03T08:52:35;5.18;;;2.00;;
19043;SDS011;9654;52.302;8.120;2022-08-03T08:55:05;8.13;;;2.83;;
19043;SDS011;9654;52.302;8.120;2022-08-03T08:57:34;6.30;;;1.90;;
19043;SDS011;9654;52.302;8.120;2022-08-03T09:00:03;6.45;;;2.00;;
19043;SDS011;9654;52.302;8.120;2022-08-03T09:02:32;6.38;;;2.13;;
19043;SDS011;9654;52.302;8.120;2022-08-03T09:05:00;4.78;;;2.40;;
19043;SDS011;9654;52.302;8.120;2022-08-03T09:07:28;4.18;;;2.17;;
19043;SDS011;9654;52.302;8.120;2022-08-03T09:09:55;5.18;;;2.00;;
19043;SDS011;9654;52.302;8.120;2022-08-03T09:12:22;6.35;;;2.13;;
19043;SDS011;9654;52.302;8.120;2022-08-03T09:14:48;4.10;;;2.17;;
19043;SDS011;9654;52.302;8.120;2022-08-03T09:17:15;5.05;;;2.20;;
19043;SDS011;9654;52.302;8.120;2022-08-03T09:19:42;6.22;;;2.33;;
19043;SDS011;9654;52.302;8.120;2022-08-03T09:22:29;2.42;;;2.00;;
19043;SDS011;9654;52.302;8.120;2022-08-03T09:24:58;4.50;;;1.98;;
19043;SDS011;9654;52.302;8.120;2022-08-03T09:27:27;6.97;;;2.30;;
19043;SDS011;9654;52.302;8.120;2022-08-03T09:29:54;7.18;;;2.35;;
19043;SDS011;9654;52.302;8.120;2022-08-03T09:32:23;5.13;;;2.08;;
19043;SDS011;9654;52.302;8.120;2022-08-03T09:34:50;4.25;;;2.10;;
19043;SDS011;9654;52.302;8.120;2022-08-03T09:37:18;6.55;;;2.13;;
19043;SDS011;9654;52.302;8.120;2022-08-03T09:39:51;6.05;;;2.38;;
19043;SDS011;9654;52.302;8.120;2022-08-03T09:42:18;2.67;;;2.00;;
19043;SDS011;9654;52.302;8.120;2022-08-03T09:44:47;4.65;;;2.20;;
19043;SDS011;9654;52.302;8.120;2022-08-03T09:47:15;4.68;;;2.10;;
19043;SDS011;9654;52.302;8.120;2022-08-03T09:49:56;2.63;;;1.80;;
19043;SDS011;9654;52.302;8.120;2022-08-03T09:52:29;3.45;;;2.00;;
19043;SDS011;9654;52.302;8.120;2022-08-03T09:54:58;6.85;;;2.30;;
19043;SDS011;9654;52.302;8.120;2022-08-03T09:57:26;3.85;;;2.20;;
19043;SDS011;9654;52.302;8.120;2022-08-03T09:59:54;3.17;;;2.08;;
19043;SDS011;9654;52.302;8.120;2022-08-03T10:02:33;7.75;;;2.40;;
19043;SDS011;9654;52.302;8.120;2022-08-03T10:05:01;4.13;;;2.15;;
19043;SDS011;9654;52.302;8.120;2022-08-03T10:07:27;5.35;;;2.15;;
19043;SDS011;9654;52.302;8.120;2022-08-03T10:09:55;15.30;;;2.80;;
19043;SDS011;9654;52.302;8.120;2022-08-03T10:12:25;3.47;;;2.13;;
19043;SDS011;9654;52.302;8.120;2022-08-03T10:14:52;6.38;;;1.90;;
19043;SDS011;9654;52.302;8.120;2022-08-03T10:17:20;5.57;;;1.90;;
19043;SDS011;9654;52.302;8.120;2022-08-03T10:19:47;8.02;;;2.22;;
19043;SDS011;9654;52.302;8.120;2022-08-03T10:22:15;8.38;;;2.53;;
19043;SDS011;9654;52.302;8.120;2022-08-03T10:24:47;7.28;;;2.00;;
19043;SDS011;9654;52.302;8.120;2022-08-03T10:27:19;5.47;;;1.92;;
19043;SDS011;9654;52.302;8.120;2022-08-03T10:29:49;5.45;;;2.38;;
19043;SDS011;9654;52.302;8.120;2022-08-03T10:32:20;6.15;;;2.03;;
19043;SDS011;9654;52.302;8.120;2022-08-03T10:34:51;8.80;;;2.55;;
19043;SDS011;9654;52.302;8.120;2022-08-03T10:37:24;7.13;;;2.50;;
19043;SDS011;9654;52.302;8.120;2022-08-03T10:39:55;5.13;;;2.30;;
19043;SDS011;9654;52.302;8.120;2022-08-03T10:42:24;3.65;;;1.88;;
19043;SDS011;9654;52.302;8.120;2022-08-03T10:44:58;6.35;;;2.30;;
19043;SDS011;9654;52.302;8.120;2022-08-03T10:47:29;4.22;;;1.88;;
19043;SDS011;9654;52.302;8.120;2022-08-03T10:49:56;3.60;;;2.05;;
19043;SDS011;9654;52.302;8.120;2022-08-03T10:52:24;7.45;;;2.08;;
19043;SDS011;9654;52.302;8.120;2022-08-03T10:54:50;11.07;;;2.33;;
19043;SDS011;9654;52.302;8.120;2022-08-03T10:57:43;4.35;;;2.30;;
19043;SDS011;9654;52.302;8.120;2022-08-03T11:00:11;3.20;;;2.00;;
19043;SDS011;9654;52.302;8.120;2022-08-03T11:05:35;5.60;;;1.70;;
19043;SDS011;9654;52.302;8.120;2022-08-03T11:08:23;6.43;;;2.20;;
19043;SDS011;9654;52.302;8.120;2022-08-03T11:10:52;6.28;;;2.22;;
19043;SDS011;9654;52.302;8.120;2022-08-03T11:13:22;7.28;;;2.30;;
19043;SDS011;9654;52.302;8.120;2022-08-03T11:15:52;4.50;;;2.10;;
19043;SDS011;9654;52.302;8.120;2022-08-03T11:18:20;5.22;;;2.20;;
19043;SDS011;9654;52.302;8.120;2022-08-03T11:20:49;7.78;;;2.08;;
19043;SDS011;9654;52.302;8.120;2022-08-03T11:23:18;10.25;;;2.22;;
19043;SDS011;9654;52.302;8.120;2022-08-03T11:28:43;6.15;;;2.20;;
19043;SDS011;9654;52.302;8.120;2022-08-03T11:34:13;8.02;;;2.20;;
19043;SDS011;9654;52.302;8.120;2022-08-03T11:39:45;8.50;;;2.15;;
19043;SDS011;9654;52.302;8.120;2022-08-03T11:45:07;8.10;;;2.30;;
19043;SDS011;9654;52.302;8.120;2022-08-03T11:47:38;7.55;;;2.22;;
19043;SDS011;9654;52.302;8.120;2022-08-03T11:50:06;9.57;;;2.22;;
19043;SDS011;9654;52.302;8.120;2022-08-03T11:52:34;8.50;;;2.20;;
19043;SDS011;9654;52.302;8.120;2022-08-03T11:55:15;5.60;;;2.15;;
19043;SDS011;9654;52.302;8.120;2022-08-03T11:57:46;8.55;;;2.30;;
19043;SDS011;9654;52.302;8.120;2022-08-03T12:00:38;7.15;;;2.13;;
19043;SDS011;9654;52.302;8.120;2022-08-03T12:03:06;4.13;;;1.90;;
19043;SDS011;9654;52.302;8.120;2022-08-03T12:05:34;6.53;;;1.90;;
19043;SDS011;9654;52.302;8.120;2022-08-03T12:08:02;4.70;;;2.45;;
19043;SDS011;9654;52.302;8.120;2022-08-03T12:10:30;3.17;;;1.45;;
19043;SDS011;9654;52.302;8.120;2022-08-03T12:12:58;9.75;;;1.90;;
19043;SDS011;9654;52.302;8.120;2022-08-03T12:15:26;7.35;;;2.30;;
19043;SDS011;9654;52.302;8.120;2022-08-03T12:17:55;6.13;;;2.03;;
19043;SDS011;9654;52.302;8.120;2022-08-03T12:20:23;5.70;;;2.17;;
19043;SDS011;9654;52.302;8.120;2022-08-03T12:22:51;2.80;;;1.95;;
19043;SDS011;9654;52.302;8.120;2022-08-03T12:25:21;3.85;;;1.90;;
19043;SDS011;9654;52.302;8.120;2022-08-03T12:27:49;6.15;;;1.50;;
19043;SDS011;9654;52.302;8.120;2022-08-03T12:30:17;6.20;;;2.08;;
19043;SDS011;9654;52.302;8.120;2022-08-03T12:32:44;6.38;;;1.98;;
19043;SDS011;9654;52.302;8.120;2022-08-03T12:35:21;6.15;;;1.98;;
19043;SDS011;9654;52.302;8.120;2022-08-03T12:37:49;5.55;;;2.03;;
19043;SDS011;9654;52.302;8.120;2022-08-03T12:40:23;7.75;;;2.22;;
19043;SDS011;9654;52.302;8.120;2022-08-03T12:42:51;5.20;;;2.00;;
19043;SDS011;9654;52.302;8.120;2022-08-03T12:45:22;6.65;;;2.20;;
19043;SDS011;9654;52.302;8.120;2022-08-03T12:47:51;5.28;;;1.98;;
19043;SDS011;9654;52.302;8.120;2022-08-03T12:50:28;4.57;;;1.92;;
19043;SDS011;9654;52.302;8.120;2022-08-03T12:52:56;4.32;;;1.85;;
19043;SDS011;9654;52.302;8.120;2022-08-03T12:55:24;5.88;;;2.05;;
19043;SDS011;9654;52.302;8.120;2022-08-03T12:57:57;3.17;;;1.98;;
19043;SDS011;9654;52.302;8.120;2022-08-03T13:00:24;2.80;;;1.92;;
19043;SDS011;9654;52.302;8.120;2022-08-03T13:02:57;5.68;;;2.00;;
19043;SDS011;9654;52.302;8.120;2022-08-03T13:05:25;5.15;;;2.30;;
19043;SDS011;9654;52.302;8.120;2022-08-03T13:07:57;5.60;;;1.77;;
19043;SDS011;9654;52.302;8.120;2022-08-03T13:10:28;5.88;;;1.88;;
19043;SDS011;9654;52.302;8.120;2022-08-03T13:12:56;6.57;;;1.90;;
19043;SDS011;9654;52.302;8.120;2022-08-03T13:15:24;9.60;;;2.20;;
19043;SDS011;9654;52.302;8.120;2022-08-03T13:17:52;3.15;;;1.58;;
19043;SDS011;9654;52.302;8.120;2022-08-03T13:20:19;4.35;;;1.60;;
19043;SDS011;9654;52.302;8.120;2022-08-03T13:22:48;7.75;;;1.88;;
19043;SDS011;9654;52.302;8.120;2022-08-03T13:25:15;5.10;;;2.08;;
19043;SDS011;9654;52.302;8.120;2022-08-03T13:27:42;6.03;;;1.90;;
19043;SDS011;9654;52.302;8.120;2022-08-03T13:30:09;6.95;;;1.85;;
19043;SDS011;9654;52.302;8.120;2022-08-03T13:32:37;2.90;;;1.98;;
19043;SDS011;9654;52.302;8.120;2022-08-03T13:35:04;8.88;;;2.30;;
19043;SDS011;9654;52.302;8.120;2022-08-03T13:37:31;7.07;;;2.38;;
19043;SDS011;9654;52.302;8.120;2022-08-03T13:40:00;9.52;;;2.47;;
19043;SDS011;9654;52.302;8.120;2022-08-03T13:42:28;7.80;;;1.90;;
19043;SDS011;9654;52.302;8.120;2022-08-03T13:44:56;3.25;;;1.77;;
19043;SDS011;9654;52.302;8.120;2022-08-03T13:47:23;7.90;;;2.17;;
19043;SDS011;9654;52.302;8.120;2022-08-03T13:49:50;4.13;;;1.77;;
19043;SDS011;9654;52.302;8.120;2022-08-03T13:52:17;7.30;;;2.22;;
19043;SDS011;9654;52.302;8.120;2022-08-03T13:54:44;5.15;;;1.67;;
19043;SDS011;9654;52.302;8.120;2022-08-03T13:57:12;6.60;;;1.75;;
19043;SDS011;9654;52.302;8.120;2022-08-03T13:59:39;6.90;;;2.47;;
19043;SDS011;9654;52.302;8.120;2022-08-03T14:02:06;8.00;;;2.30;;
19043;SDS011;9654;52.302;8.120;2022-08-03T14:04:33;5.53;;;1.63;;
19043;SDS011;9654;52.302;8.120;2022-08-03T14:07:00;9.32;;;2.20;;
19043;SDS011;9654;52.302;8.120;2022-08-03T14:09:26;4.68;;;2.10;;
19043;SDS011;9654;52.302;8.120;2022-08-03T14:11:53;6.43;;;2.25;;
19043;SDS011;9654;52.302;8.120;2022-08-03T14:14:21;5.95;;;1.52;;
19043;SDS011;9654;52.302;8.120;2022-08-03T14:16:48;4.93;;;2.28;;
19043;SDS011;9654;52.302;8.120;2022-08-03T14:19:15;5.45;;;2.10;;
19043;SDS011;9654;52.302;8.120;2022-08-03T14:21:42;4.15;;;2.22;;
19043;SDS011;9654;52.302;8.120;2022-08-03T14:24:09;5.72;;;2.00;;
19043;SDS011;9654;52.302;8.120;2022-08-03T14:26:36;3.33;;;2.17;;
19043;SDS011;9654;52.302;8.120;2022-08-03T14:29:02;6.25;;;2.00;;
19043;SDS011;9654;52.302;8.120;2022-08-03T14:31:31;11.45;;;2.65;;
19043;SDS011;9654;52.302;8.120;2022-08-03T14:33:58;6.95;;;1.83;;
19043;SDS011;9654;52.302;8.120;2022-08-03T14:36:25;4.60;;;1.52;;
19043;SDS011;9654;52.302;8.120;2022-08-03T14:38:51;8.38;;;2.15;;
19043;SDS011;9654;52.302;8.120;2022-08-03T14:41:18;8.73;;;2.15;;
19043;SDS011;9654;52.302;8.120;2022-08-03T14:43:45;8.95;;;2.10;;
19043;SDS011;9654;52.302;8.120;2022-08-03T14:46:12;4.22;;;1.45;;
19043;SDS011;9654;52.302;8.120;2022-08-03T14:48:40;4.13;;;1.55;;
19043;SDS011;9654;52.302;8.120;2022-08-03T14:51:07;6.05;;;2.00;;
19043;SDS011;9654;52.302;8.120;2022-08-03T14:53:34;4.32;;;1.85;;
19043;SDS011;9654;52.302;8.120;2022-08-03T14:56:01;6.88;;;2.15;;
19043;SDS011;9654;52.302;8.120;2022-08-03T14:58:27;5.95;;;1.92;;
19043;SDS011;9654;52.302;8.120;2022-08-03T15:00:54;7.00;;;1.95;;
19043;SDS011;9654;52.302;8.120;2022-08-03T15:03:22;4.70;;;1.70;;
19043;SDS011;9654;52.302;8.120;2022-08-03T15:05:51;8.32;;;2.50;;
19043;SDS011;9654;52.302;8.120;2022-08-03T15:08:20;8.35;;;1.83;;
19043;SDS011;9654;52.302;8.120;2022-08-03T15:10:48;8.32;;;2.08;;
19043;SDS011;9654;52.302;8.120;2022-08-03T15:13:16;3.97;;;1.80;;
19043;SDS011;9654;52.302;8.120;2022-08-03T15:15:43;4.28;;;2.00;;
19043;SDS011;9654;52.302;8.120;2022-08-03T15:18:10;6.93;;;2.20;;
19043;SDS011;9654;52.302;8.120;2022-08-03T15:20:37;8.45;;;1.85;;
19043;SDS011;9654;52.302;8.120;2022-08-03T15:23:05;5.20;;;2.03;;
19043;SDS011;9654;52.302;8.120;2022-08-03T15:25:32;7.18;;;1.75;;
19043;SDS011;9654;52.302;8.120;2022-08-03T15:27:58;4.25;;;1.63;;